首页
METAR-TAF:

METAR-TAF

机场 :

库库塔, 哥伦比亚

纬度: 07-56N, 经度: 072-31W, 海拔: 250米

当前天气观测

该预报发布于47分钟前的02:00 UTC
风速5节,风向西转西南
温度 28°C
湿度 74%
气压 1014 hPa
能见度10公里或以上
散云层高于1500英尺
多云层高于7000英尺

METAR: SKCC 250200Z 24005KT 9999 SCT015 BKN070 28/23 Q1014

时间: 21:47 (02:47 UTC)

预报

该预报发布于4小时和17分钟前的22:30 UTC
预报有效从25日的 00点(UTC)到 25日的 24点(UTC)
风速2节,风向多变
能见度10公里或以上
散云层高于1800英尺
短暂存在
从 25日的 01点(UTC)到 25日的 04点(UTC)
能見度: 5000
散云层高于1500英尺, 积雨云.
雷暴, 雨
成为
从 25日的 16点(UTC)到 25日的 18点(UTC)
风速12节,风向

TAF: SKCC 242230Z 2500/2524 VRB02KT 9999 SCT018 TEMPO 2501/2504 5000 TSRA SCT015CB BECMG 2516/2518 01012KT TX34/2519Z TN25/2510Z

超过4000个机场的气象观测和天气预报(METAR&TAF报告)。

可查询的气象台以黄色和红色小点在地图上表示。

将鼠标移到小点上方,可查看气象台名称。

然后点击查看天气观测和预报。

如需切换地图:点击带黑十字的绿色按钮放大地图;点击带横线的绿色按钮缩小地图;或者点击绿色箭头查看邻近地区的地图。


METAR-TAF: